Time;durP1;ratioP1;P1;durP2;ratioP2;P2;SDS_P1;SDS_P2;PMS_P1;PMS_P2;Temp;Humidity;BMP_temperature;BMP_pressure;BME280_temperature;BME280_humidity;BME280_pressure;Samples;Min_cycle;Max_cycle;Signal;HPM_P1;HPM_P2
2021/05/05 00:00:37;;;;;;;;;;;;;;;;;;5062025;28;19924;-66
2021/05/05 00:03:03;;;;;;;;;;;;;;;;;;5062799;28;20340;-66
2021/05/05 00:05:30;;;;;;;;;;;;;;;;;;5069323;28;19931;-66
2021/05/05 00:07:56;;;;;;;;;;;;;;;;;;5066590;28;19940;-66
2021/05/05 00:10:23;;;;;;;;;;;;;;;;;;5059850;28;19924;-66
2021/05/05 00:12:49;;;;;;;;;;;;;;;;;;5063714;28;19925;-67
2021/05/05 00:15:16;;;;;;;;;;;;;;;;;;5064194;28;19925;-66
2021/05/05 00:17:42;;;;;;;;;;;;;;;;;;5064627;28;19962;-66
2021/05/05 00:20:09;;;;;;;;;;;;;;;;;;5057209;28;19933;-66
2021/05/05 00:22:35;;;;;;;;;;;;;;;;;;5068318;28;20366;-66
2021/05/05 00:25:02;;;;;;;;;;;;;;;;;;5067614;28;19924;-67
2021/05/05 00:27:28;;;;;;;;;;;;;;;;;;5066407;28;19947;-66
2021/05/05 00:29:55;;;;;;;;;;;;;;;;;;5079458;22;21306;-65
2021/05/05 00:32:21;;;;;;;;;;;;;;;;;;5072724;28;19924;-65
2021/05/05 00:34:48;;;;;;;;;;;;;;;;;;5071856;28;20383;-64
2021/05/05 00:37:14;;;;;;;;;;;;;;;;;;5069891;28;19924;-64
2021/05/05 00:39:41;;;;;;;;;;;;;;;;;;5068586;28;20457;-64
2021/05/05 00:42:07;;;;;;;;;;;;;;;;;;5073958;28;19928;-65
2021/05/05 00:44:34;;;;;;;;;;;;;;;;;;5070057;28;20319;-65
2021/05/05 00:47:00;;;;;;;;;;;;;;;;;;5069239;28;20304;-65
2021/05/05 00:49:27;;;;;;;;;;;;;;;;;;5071453;28;19928;-65
2021/05/05 00:51:53;;;;;;;;;;;;;;;;;;5073323;28;19929;-65
2021/05/05 00:54:20;;;;;;;;;;;;;;;;;;5068642;28;19929;-65
2021/05/05 00:56:46;;;;;;;;;;;;;;;;;;5069109;28;20459;-65
2021/05/05 00:59:13;;;;;;;;;;;;;;;;;;5067083;28;19924;-65
2021/05/05 01:01:40;;;;;;;;;;;;;;;;;;5066874;28;19933;-65
2021/05/05 01:04:06;;;;;;;;;;;;;;;;;;5070437;28;19929;-67
2021/05/05 01:06:33;;;;;;;;;;;;;;;;;;5067899;28;20015;-65
2021/05/05 01:08:59;;;;;;;;;;;;;;;;;;5071464;28;19931;-65
2021/05/05 01:11:26;;;;;;;;;;;;;;;;;;5068191;28;19925;-66
2021/05/05 01:13:52;;;;;;;;;;;;;;;;;;5070488;28;19928;-66
2021/05/05 01:16:19;;;;;;;;;;;;;;;;;;5070272;28;19958;-65
2021/05/05 01:18:45;;;;;;;;;;;;;;;;;;5068264;28;19924;-65
2021/05/05 01:21:12;;;;;;;;;;;;;;;;;;5064033;28;20464;-65
2021/05/05 01:23:38;;;;;;;;;;;;;;;;;;5063459;28;19933;-65
2021/05/05 01:26:05;;;;;;;;;;;;;;;;;;5070497;28;19938;-65
2021/05/05 01:28:31;;;;;;;;;;;;;;;;;;5068971;28;19942;-65
2021/05/05 01:30:58;;;;;;;;;;;;;;;;;;5071309;28;19929;-65
2021/05/05 01:33:24;;;;;;;;;;;;;;;;;;5065431;28;20023;-65
2021/05/05 01:35:51;;;;;;;;;;;;;;;;;;5063324;28;19924;-65
2021/05/05 01:38:17;;;;;;;;;;;;;;;;;;5069064;28;19924;-65
2021/05/05 01:40:44;;;;;;;;;;;;;;;;;;5063860;28;19929;-65
2021/05/05 01:43:10;;;;;;;;;;;;;;;;;;5069330;28;19974;-65
2021/05/05 01:45:37;;;;;;;;;;;;;;;;;;5068666;28;20007;-66
2021/05/05 01:48:03;;;;;;;;;;;;;;;;;;5065228;28;20277;-65
2021/05/05 01:50:30;;;;;;;;;;;;;;;;;;5070462;28;20015;-65
2021/05/05 01:52:56;;;;;;;;;;;;;;;;;;5071464;28;19975;-64
2021/05/05 01:55:23;;;;;;;;;;;;;;;;;;5072056;28;20055;-65
2021/05/05 01:57:49;;;;;;;;;;;;;;;;;;5066878;28;20384;-65
2021/05/05 02:00:16;;;;;;;;;;;;;;;;;;5069845;28;20062;-65
2021/05/05 02:02:42;;;;;;;;;;;;;;;;;;5070273;28;19924;-65
2021/05/05 02:05:09;;;;;;;;;;;;;;;;;;5068185;28;19935;-64
2021/05/05 02:07:35;;;;;;;;;;;;;;;;;;5069403;28;19978;-64
2021/05/05 02:10:02;;;;;;;;;;;;;;;;;;5068594;28;19931;-64
2021/05/05 02:12:28;;;;;;;;;;;;;;;;;;5086127;28;19924;-64
2021/05/05 02:14:55;;;;;;;;;;;;;;;;;;5080917;28;20026;-65
2021/05/05 02:17:21;;;;;;;;;;;;;;;;;;5067615;28;20000;-65
2021/05/05 02:19:48;;;;;;;;;;;;;;;;;;5065156;28;20303;-65
2021/05/05 02:22:14;;;;;;;;;;;;;;;;;;5077836;28;19983;-65
2021/05/05 02:24:41;;;;;;;;;;;;;;;;;;5080855;28;19924;-65
2021/05/05 02:27:07;;;;;;;;;;;;;;;;;;5076709;28;19924;-65
2021/05/05 02:29:34;;;;;;;;;;;;;;;;;;5081298;28;19925;-64
2021/05/05 02:32:00;;;;;;;;;;;;;;;;;;5068773;28;19960;-64
2021/05/05 02:34:27;;;;;;;;;;;;;;;;;;5067538;28;19935;-65
2021/05/05 02:36:53;;;;;;;;;;;;;;;;;;5068893;28;19959;-65
2021/05/05 02:39:20;;;;;;;;;;;;;;;;;;5064260;28;20023;-64
2021/05/05 02:41:46;;;;;;;;;;;;;;;;;;5063787;28;20007;-66
2021/05/05 02:44:13;;;;;;;;;;;;;;;;;;5066353;28;20060;-66
2021/05/05 02:46:39;;;;;;;;;;;;;;;;;;5065016;28;19924;-66
2021/05/05 02:49:05;;;;;;;;;;;;;;;;;;5066576;28;20011;-65
2021/05/05 02:51:32;;;;;;;;;;;;;;;;;;5067833;28;19930;-66
2021/05/05 02:53:58;;;;;;;;;;;;;;;;;;5068450;28;19930;-65
2021/05/05 02:56:25;;;;;;;;;;;;;;;;;;5066567;28;19931;-66
2021/05/05 02:58:51;;;;;;;;;;;;;;;;;;5062038;28;19950;-66
2021/05/05 03:01:18;;;;;;;;;;;;;;;;;;5059561;28;19925;-66
2021/05/05 03:03:45;;;;;;;;;;;;;;;;;;5065151;28;20435;-66
2021/05/05 03:06:11;;;;;;;;;;;;;;;;;;5063860;28;19932;-65
2021/05/05 03:08:37;;;;;;;;;;;;;;;;;;5059348;28;19924;-66
2021/05/05 03:11:04;;;;;;;;;;;;;;;;;;5067256;28;20388;-66
2021/05/05 03:13:30;;;;;;;;;;;;;;;;;;5064312;28;20024;-65
2021/05/05 03:15:57;;;;;;;;;;;;;;;;;;5069052;28;20003;-66
2021/05/05 03:18:23;;;;;;;;;;;;;;;;;;5066803;28;20431;-66
2021/05/05 03:20:50;;;;;;;;;;;;;;;;;;5067066;28;19963;-66
2021/05/05 03:23:16;;;;;;;;;;;;;;;;;;5069786;28;20295;-66
2021/05/05 03:25:43;;;;;;;;;;;;;;;;;;5068695;28;20023;-66
2021/05/05 03:28:10;;;;;;;;;;;;;;;;;;5065138;28;20368;-64
2021/05/05 03:30:36;;;;;;;;;;;;;;;;;;5058151;28;19928;-65
2021/05/05 03:33:03;;;;;;;;;;;;;;;;;;5061338;28;19971;-65
2021/05/05 03:35:29;;;;;;;;;;;;;;;;;;5061785;28;20295;-65
2021/05/05 03:37:56;;;;;;;;;;;;;;;;;;5068807;28;19948;-65
2021/05/05 03:40:22;;;;;;;;;;;;;;;;;;5065762;28;20031;-65
2021/05/05 03:42:48;;;;;;;;;;;;;;;;;;5064661;28;19925;-65
2021/05/05 03:45:15;;;;;;;;;;;;;;;;;;5060199;28;20983;-65
2021/05/05 03:47:41;;;;;;;;;;;;;;;;;;5068177;28;19925;-65
2021/05/05 03:50:08;;;;;;;;;;;;;;;;;;5063944;28;19924;-65
2021/05/05 03:52:35;;;;;;;;;;;;;;;;;;5068485;28;19925;-65
2021/05/05 03:55:01;;;;;;;;;;;;;;;;;;5066803;28;20015;-64
2021/05/05 03:57:28;;;;;;;;;;;;;;;;;;5067717;28;19925;-66
2021/05/05 03:59:54;;;;;;;;;;;;;;;;;;5068090;28;19925;-64
2021/05/05 04:02:21;;;;;;;;;;;;;;;;;;5065844;28;20316;-65
2021/05/05 04:04:47;;;;;;;;;;;;;;;;;;5068155;28;19928;-65
2021/05/05 04:07:16;;;;;;;;;;;;;;;;;;5070348;28;20533;-65
2021/05/05 04:09:43;;;;;;;;;;;;;;;;;;5071770;28;20200;-65
2021/05/05 04:12:09;;;;;;;;;;;;;;;;;;5065647;28;19924;-64
2021/05/05 04:14:36;;;;;;;;;;;;;;;;;;5066811;28;20004;-65
2021/05/05 04:17:02;;;;;;;;;;;;;;;;;;5071029;28;20041;-65
2021/05/05 04:19:29;;;;;;;;;;;;;;;;;;5069372;28;20325;-64
2021/05/05 04:21:55;;;;;;;;;;;;;;;;;;5071593;28;19930;-65
2021/05/05 04:24:21;;;;;;;;;;;;;;;;;;5061237;28;19925;-65
2021/05/05 04:26:48;;;;;;;;;;;;;;;;;;5071210;28;19924;-64
2021/05/05 04:29:14;;;;;;;;;;;;;;;;;;5068430;28;20076;-64
2021/05/05 04:31:41;;;;;;;;;;;;;;;;;;5063632;28;20325;-64
2021/05/05 04:34:07;;;;;;;;;;;;;;;;;;5065485;28;19932;-64
2021/05/05 04:36:34;;;;;;;;;;;;;;;;;;5070214;28;19932;-65
2021/05/05 04:39:00;;;;;;;;;;;;;;;;;;5061806;28;19932;-65
2021/05/05 04:41:27;;;;;;;;;;;;;;;;;;5070161;28;20649;-65
2021/05/05 04:43:53;;;;;;;;;;;;;;;;;;5070682;28;19924;-65
2021/05/05 04:46:20;;;;;;;;;;;;;;;;;;5068983;28;19925;-66
2021/05/05 04:48:46;;;;;;;;;;;;;;;;;;5069482;28;19929;-66
2021/05/05 04:51:13;;;;;;;;;;;;;;;;;;5072137;28;19944;-66
2021/05/05 04:53:39;;;;;;;;;;;;;;;;;;5067802;28;20404;-65
2021/05/05 04:56:06;;;;;;;;;;;;;;;;;;5069548;28;19950;-65
2021/05/05 04:58:32;;;;;;;;;;;;;;;;;;5071636;28;19924;-66
2021/05/05 05:00:58;;;;;;;;;;;;;;;;;;5060002;28;19925;-67
2021/05/05 05:03:25;;;;;;;;;;;;;;;;;;5070524;28;20383;-66
2021/05/05 05:05:51;;;;;;;;;;;;;;;;;;5071955;28;20001;-68
2021/05/05 05:08:18;;;;;;;;;;;;;;;;;;5071465;28;19978;-65
2021/05/05 05:10:45;;;;;;;;;;;;;;;;;;5070317;28;19928;-65
2021/05/05 05:13:11;;;;;;;;;;;;;;;;;;5071801;28;19924;-65
2021/05/05 05:15:38;;;;;;;;;;;;;;;;;;5072889;28;19977;-65
2021/05/05 05:18:04;;;;;;;;;;;;;;;;;;5071725;28;19936;-65
2021/05/05 05:20:31;;;;;;;;;;;;;;;;;;5066826;28;20288;-66
2021/05/05 05:22:57;;;;;;;;;;;;;;;;;;5071881;28;19930;-65
2021/05/05 05:25:24;;;;;;;;;;;;;;;;;;5071786;28;20304;-66
2021/05/05 05:27:51;;;;;;;;;;;;;;;;;;5073017;28;19978;-64
2021/05/05 05:30:17;;;;;;;;;;;;;;;;;;5068741;28;19929;-66
2021/05/05 05:32:44;;;;;;;;;;;;;;;;;;5069968;28;20296;-64
2021/05/05 05:35:10;;;;;;;;;;;;;;;;;;5067456;28;19930;-64
2021/05/05 05:37:37;;;;;;;;;;;;;;;;;;5071033;28;20393;-64
2021/05/05 05:40:03;;;;;;;;;;;;;;;;;;5070980;28;19956;-66
2021/05/05 05:42:30;;;;;;;;;;;;;;;;;;5070361;28;19964;-64
2021/05/05 05:44:56;;;;;;;;;;;;;;;;;;5070395;28;19991;-64
2021/05/05 05:47:23;;;;;;;;;;;;;;;;;;5066118;28;19933;-64
2021/05/05 05:49:49;;;;;;;;;;;;;;;;;;5064623;28;19975;-66
2021/05/05 05:52:16;;;;;;;;;;;;;;;;;;5067879;28;20307;-67
2021/05/05 05:54:42;;;;;;;;;;;;;;;;;;5071734;28;20017;-64
2021/05/05 05:57:09;;;;;;;;;;;;;;;;;;5063954;28;19925;-64
2021/05/05 05:59:35;;;;;;;;;;;;;;;;;;5070004;28;19924;-64
2021/05/05 06:02:02;;;;;;;;;;;;;;;;;;5067759;28;20337;-64
2021/05/05 06:04:28;;;;;;;;;;;;;;;;;;5068002;28;20019;-65
2021/05/05 06:06:55;;;;;;;;;;;;;;;;;;5067522;28;19929;-65
2021/05/05 06:09:21;;;;;;;;;;;;;;;;;;5068450;28;19932;-66
2021/05/05 06:11:48;;;;;;;;;;;;;;;;;;5065576;28;19924;-66
2021/05/05 06:14:15;;;;;;;;;;;;;;;;;;5065991;28;19925;-64
2021/05/05 06:16:41;;;;;;;;;;;;;;;;;;5068057;28;20470;-67
2021/05/05 06:19:08;;;;;;;;;;;;;;;;;;5066772;28;19924;-64
2021/05/05 06:21:34;;;;;;;;;;;;;;;;;;5061573;28;20388;-65
2021/05/05 06:24:01;;;;;;;;;;;;;;;;;;5070703;28;20039;-64
2021/05/05 06:26:27;;;;;;;;;;;;;;;;;;5069580;28;20493;-67
2021/05/05 06:28:54;;;;;;;;;;;;;;;;;;5069239;28;19935;-65
2021/05/05 06:31:20;;;;;;;;;;;;;;;;;;5082792;22;19924;-66
2021/05/05 06:33:48;;;;;;;;;;;;;;;;;;5071707;28;19931;-67
2021/05/05 06:36:16;;;;;;;;;;;;;;;;;;5069389;28;19974;-68
2021/05/05 06:38:43;;;;;;;;;;;;;;;;;;5069681;28;20392;-68
2021/05/05 06:41:10;;;;;;;;;;;;;;;;;;5069274;28;19931;-68
2021/05/05 06:43:37;;;;;;;;;;;;;;;;;;5068315;28;20018;-67
2021/05/05 06:46:03;;;;;;;;;;;;;;;;;;5066189;28;19933;-67
2021/05/05 06:48:29;;;;;;;;;;;;;;;;;;5062948;28;19932;-69
2021/05/05 06:50:56;;;;;;;;;;;;;;;;;;5065293;28;19925;-68
2021/05/05 06:53:24;;;;;;;;;;;;;;;;;;5065345;28;19925;-68
2021/05/05 06:55:50;;;;;;;;;;;;;;;;;;5063409;28;19933;-67
2021/05/05 06:58:19;;;;;;;;;;;;;;;;;;5062037;28;19954;-69
2021/05/05 07:00:46;;;;;;;;;;;;;;;;;;5060601;28;19978;-67
2021/05/05 07:03:12;;;;;;;;;;;;;;;;;;5065003;28;19934;-69
2021/05/05 07:05:39;;;;;;;;;;;;;;;;;;5063282;28;20407;-68
2021/05/05 07:08:05;;;;;;;;;;;;;;;;;;5068829;28;19930;-68
2021/05/05 07:10:32;;;;;;;;;;;;;;;;;;5064933;28;19925;-69
2021/05/05 07:12:58;;;;;;;;;;;;;;;;;;5069218;28;19924;-70
2021/05/05 07:15:25;;;;;;;;;;;;;;;;;;5066846;28;19947;-67
2021/05/05 07:17:52;;;;;;;;;;;;;;;;;;5068863;28;20357;-69
2021/05/05 07:20:18;;;;;;;;;;;;;;;;;;5069387;28;19948;-69
2021/05/05 07:22:45;;;;;;;;;;;;;;;;;;5066497;28;20023;-69
2021/05/05 07:25:11;;;;;;;;;;;;;;;;;;5066422;28;19968;-68
2021/05/05 07:27:38;;;;;;;;;;;;;;;;;;5068861;28;20015;-68
2021/05/05 07:30:04;;;;;;;;;;;;;;;;;;5065582;28;19924;-67
2021/05/05 07:32:31;;;;;;;;;;;;;;;;;;5065460;28;19924;-68
2021/05/05 07:34:58;;;;;;;;;;;;;;;;;;5066780;28;20311;-69
2021/05/05 07:37:34;;;;;;;;;;;;;;;;;;5065549;28;20025;-68
2021/05/05 07:48:26;;;;;;;;;;;;;;;;;;5068475;28;19921;-70
2021/05/05 07:50:53;;;;;;;;;;;;;;;;;;5062839;28;19928;-68
2021/05/05 07:53:19;;;;;;;;;;;;;;;;;;5070361;28;19928;-69
2021/05/05 07:55:46;;;;;;;;;;;;;;;;;;5067785;28;19932;-69
2021/05/05 07:58:12;;;;;;;;;;;;;;;;;;5067738;28;19928;-68
2021/05/05 08:00:39;;;;;;;;;;;;;;;;;;5068241;28;20011;-68
2021/05/05 08:03:05;;;;;;;;;;;;;;;;;;5067932;28;20789;-69
2021/05/05 08:05:32;;;;;;;;;;;;;;;;;;5065553;28;20356;-68
2021/05/05 08:07:58;;;;;;;;;;;;;;;;;;5068672;28;19932;-69
2021/05/05 08:10:25;;;;;;;;;;;;;;;;;;5067680;28;19929;-68
2021/05/05 08:12:51;;;;;;;;;;;;;;;;;;5070283;28;20407;-68
2021/05/05 08:15:18;;;;;;;;;;;;;;;;;;5066925;28;19925;-67
2021/05/05 08:17:46;;;;;;;;;;;;;;;;;;5065406;28;19925;-68
2021/05/05 08:20:12;;;;;;;;;;;;;;;;;;5068718;28;20611;-69
2021/05/05 08:22:39;;;;;;;;;;;;;;;;;;5070293;28;19931;-67
2021/05/05 08:25:06;;;;;;;;;;;;;;;;;;5071482;28;19977;-68
2021/05/05 08:27:33;;;;;;;;;;;;;;;;;;5067104;28;19925;-66
2021/05/05 08:29:59;;;;;;;;;;;;;;;;;;5068390;28;19931;-68
2021/05/05 08:32:26;;;;;;;;;;;;;;;;;;5074928;28;20455;-67
2021/05/05 08:34:52;;;;;;;;;;;;;;;;;;5063018;28;19939;-69
2021/05/05 08:37:29;;;;;;;;;;;;;;;;;;5070058;28;20395;-67
2021/05/05 08:39:56;;;;;;;;;;;;;;;;;;5067146;28;20080;-69
2021/05/05 08:42:22;;;;;;;;;;;;;;;;;;5067190;28;19929;-69
2021/05/05 08:44:49;;;;;;;;;;;;;;;;;;5066803;28;20382;-68
2021/05/05 08:47:15;;;;;;;;;;;;;;;;;;5069860;28;19931;-69
2021/05/05 08:49:42;;;;;;;;;;;;;;;;;;5072986;28;20021;-66
2021/05/05 08:52:08;;;;;;;;;;;;;;;;;;5071016;28;20059;-68
2021/05/05 08:54:35;;;;;;;;;;;;;;;;;;5072105;28;19987;-67
2021/05/05 08:57:01;;;;;;;;;;;;;;;;;;5069212;28;19978;-69
2021/05/05 08:59:29;;;;;;;;;;;;;;;;;;5069383;28;19928;-70
2021/05/05 09:01:55;;;;;;;;;;;;;;;;;;5067324;28;19932;-73
2021/05/05 09:04:22;;;;;;;;;;;;;;;;;;5066889;28;20035;-69
2021/05/05 09:06:48;;;;;;;;;;;;;;;;;;5069628;28;19960;-68
2021/05/05 09:09:15;;;;;;;;;;;;;;;;;;5069440;28;20376;-69
2021/05/05 09:11:41;;;;;;;;;;;;;;;;;;5066026;28;19925;-70
2021/05/05 09:14:08;;;;;;;;;;;;;;;;;;5065103;28;19929;-68
2021/05/05 09:16:34;;;;;;;;;;;;;;;;;;5068672;28;20345;-70
2021/05/05 09:19:01;;;;;;;;;;;;;;;;;;5070790;28;19928;-68
2021/05/05 09:21:27;;;;;;;;;;;;;;;;;;5067551;28;19924;-69
2021/05/05 09:23:54;;;;;;;;;;;;;;;;;;5069728;28;19928;-67
2021/05/05 09:26:20;;;;;;;;;;;;;;;;;;5070325;28;20011;-69
2021/05/05 09:28:47;;;;;;;;;;;;;;;;;;5068168;28;19924;-68
2021/05/05 09:31:13;;;;;;;;;;;;;;;;;;5064830;28;19929;-70
2021/05/05 09:33:45;;;;;;;;;;;;;;;;;;5068338;28;20452;-67
2021/05/05 09:36:12;;;;;;;;;;;;;;;;;;5065937;28;19928;-70
2021/05/05 09:38:38;;;;;;;;;;;;;;;;;;5067212;28;20011;-69
2021/05/05 09:41:05;;;;;;;;;;;;;;;;;;5070308;28;19932;-69
2021/05/05 09:43:31;;;;;;;;;;;;;;;;;;5070535;28;20571;-69
2021/05/05 09:45:58;;;;;;;;;;;;;;;;;;5065688;28;20007;-69
2021/05/05 09:48:25;;;;;;;;;;;;;;;;;;5066276;28;19972;-67
2021/05/05 09:50:51;;;;;;;;;;;;;;;;;;5065509;28;19978;-67
2021/05/05 09:53:18;;;;;;;;;;;;;;;;;;5071129;28;19930;-69
2021/05/05 09:55:44;;;;;;;;;;;;;;;;;;5069324;28;19931;-69
2021/05/05 09:58:11;;;;;;;;;;;;;;;;;;5070653;28;19925;-69
2021/05/05 10:00:37;;;;;;;;;;;;;;;;;;5064473;28;19936;-68
2021/05/05 10:03:04;;;;;;;;;;;;;;;;;;5064032;28;19928;-68
2021/05/05 10:05:34;;;;;;;;;;;;;;;;;;5065177;28;20011;-71
2021/05/05 10:08:00;;;;;;;;;;;;;;;;;;5066385;28;20033;-70
2021/05/05 10:10:27;;;;;;;;;;;;;;;;;;5066403;28;19924;-69
2021/05/05 10:12:53;;;;;;;;;;;;;;;;;;5066297;28;19928;-68
2021/05/05 10:15:20;;;;;;;;;;;;;;;;;;5064645;28;20384;-69
2021/05/05 10:17:46;;;;;;;;;;;;;;;;;;5068608;28;19970;-68
2021/05/05 10:20:13;;;;;;;;;;;;;;;;;;5065828;28;19925;-70
2021/05/05 10:22:39;;;;;;;;;;;;;;;;;;5070694;28;19930;-69
2021/05/05 10:25:06;;;;;;;;;;;;;;;;;;5060766;28;19924;-68
2021/05/05 10:27:32;;;;;;;;;;;;;;;;;;5069922;28;19928;-68
2021/05/05 10:29:59;;;;;;;;;;;;;;;;;;5068336;28;20070;-69
2021/05/05 10:32:30;;;;;;;;;;;;;;;;;;5070776;28;20420;-69
2021/05/05 10:34:57;;;;;;;;;;;;;;;;;;5061869;28;20200;-69
2021/05/05 10:37:23;;;;;;;;;;;;;;;;;;5069375;28;19928;-68
2021/05/05 10:39:50;;;;;;;;;;;;;;;;;;5062810;28;19929;-68
2021/05/05 10:42:17;;;;;;;;;;;;;;;;;;5070102;28;19924;-68
2021/05/05 10:44:43;;;;;;;;;;;;;;;;;;5064895;28;20011;-69
2021/05/05 10:47:10;;;;;;;;;;;;;;;;;;5069088;28;20466;-68
2021/05/05 10:49:36;;;;;;;;;;;;;;;;;;5065437;28;19964;-67
2021/05/05 10:52:03;;;;;;;;;;;;;;;;;;5062237;28;19933;-67
2021/05/05 10:54:29;;;;;;;;;;;;;;;;;;5059954;28;19928;-67
2021/05/05 10:56:56;;;;;;;;;;;;;;;;;;5065081;28;19931;-66
2021/05/05 10:59:26;;;;;;;;;;;;;;;;;;5066057;28;20380;-66
2021/05/05 11:01:53;;;;;;;;;;;;;;;;;;5060722;28;20015;-65
2021/05/05 11:04:19;;;;;;;;;;;;;;;;;;5062775;28;19924;-65
2021/05/05 11:06:46;;;;;;;;;;;;;;;;;;5067245;28;19932;-66
2021/05/05 11:09:12;;;;;;;;;;;;;;;;;;5069524;28;19942;-65
2021/05/05 11:11:39;;;;;;;;;;;;;;;;;;5064343;28;20291;-67
2021/05/05 11:14:05;;;;;;;;;;;;;;;;;;5060674;28;19978;-67
2021/05/05 11:16:32;;;;;;;;;;;;;;;;;;5063818;28;20086;-67
2021/05/05 11:18:58;;;;;;;;;;;;;;;;;;5063951;28;20295;-67
2021/05/05 11:21:25;;;;;;;;;;;;;;;;;;5065917;28;19929;-67
2021/05/05 11:23:51;;;;;;;;;;;;;;;;;;5063581;28;20296;-67
2021/05/05 11:26:18;;;;;;;;;;;;;;;;;;5066166;28;20405;-66
2021/05/05 11:28:44;;;;;;;;;;;;;;;;;;5064437;28;20031;-67
2021/05/05 11:31:11;;;;;;;;;;;;;;;;;;5066872;28;20014;-67
2021/05/05 11:33:37;;;;;;;;;;;;;;;;;;5065941;28;19925;-67
2021/05/05 11:36:04;;;;;;;;;;;;;;;;;;5058694;28;19924;-66
2021/05/05 11:38:30;;;;;;;;;;;;;;;;;;5061251;28;19935;-67
2021/05/05 11:40:57;;;;;;;;;;;;;;;;;;5064738;28;19931;-67
2021/05/05 11:43:24;;;;;;;;;;;;;;;;;;5061142;28;19928;-65
2021/05/05 11:45:51;;;;;;;;;;;;;;;;;;5062044;28;20700;-66
2021/05/05 11:48:17;;;;;;;;;;;;;;;;;;5062326;28;20424;-68
2021/05/05 11:50:45;;;;;;;;;;;;;;;;;;5059742;28;19956;-66
2021/05/05 11:53:11;;;;;;;;;;;;;;;;;;5062649;28;19932;-68
2021/05/05 11:55:38;;;;;;;;;;;;;;;;;;5055448;28;20231;-68
2021/05/05 11:58:04;;;;;;;;;;;;;;;;;;5062609;28;20461;-68
2021/05/05 12:00:33;;;;;;;;;;;;;;;;;;5060143;28;19935;-68
2021/05/05 12:02:59;;;;;;;;;;;;;;;;;;5056441;28;20019;-68
2021/05/05 12:05:27;;;;;;;;;;;;;;;;;;5061315;28;20277;-70
2021/05/05 12:07:53;;;;;;;;;;;;;;;;;;5061755;28;19933;-69
2021/05/05 12:10:20;;;;;;;;;;;;;;;;;;5061126;28;20380;-69
2021/05/05 12:12:46;;;;;;;;;;;;;;;;;;5060477;28;19928;-68
2021/05/05 12:15:13;;;;;;;;;;;;;;;;;;5060236;28;19928;-68
2021/05/05 12:17:44;;;;;;;;;;;;;;;;;;5058351;28;19932;-71
2021/05/05 12:20:10;;;;;;;;;;;;;;;;;;5060564;28;19933;-70
2021/05/05 12:22:37;;;;;;;;;;;;;;;;;;5064586;28;20299;-69
2021/05/05 12:25:03;;;;;;;;;;;;;;;;;;5063889;28;19932;-69
2021/05/05 12:27:30;;;;;;;;;;;;;;;;;;5069415;28;19946;-69
2021/05/05 12:29:56;;;;;;;;;;;;;;;;;;5059650;28;19935;-70
2021/05/05 12:32:23;;;;;;;;;;;;;;;;;;5053958;22;20415;-69
2021/05/05 12:34:49;;;;;;;;;;;;;;;;;;5031051;28;19976;-65
2021/05/05 12:37:16;;;;;;;;;;;;;;;;;;5035916;28;20019;-66
2021/05/05 12:39:42;;;;;;;;;;;;;;;;;;5030255;28;20011;-63
2021/05/05 12:42:09;;;;;;;;;;;;;;;;;;5032054;28;20381;-66
2021/05/05 12:44:36;;;;;;;;;;;;;;;;;;5024930;28;19929;-69
2021/05/05 12:47:06;;;;;;;;;;;;;;;;;;5025870;28;20007;-63
2021/05/05 12:49:34;;;;;;;;;;;;;;;;;;5022233;28;19932;-74
2021/05/05 12:52:00;;;;;;;;;;;;;;;;;;5029853;28;19925;-66
2021/05/05 12:54:28;;;;;;;;;;;;;;;;;;5024784;28;19926;-66
2021/05/05 12:56:55;;;;;;;;;;;;;;;;;;5024891;28;20002;-70
2021/05/05 12:59:21;;;;;;;;;;;;;;;;;;5033934;28;19974;-65
2021/05/05 13:01:49;;;;;;;;;;;;;;;;;;5024691;28;19925;-65
2021/05/05 13:04:16;;;;;;;;;;;;;;;;;;5017764;28;19953;-67
2021/05/05 13:06:42;;;;;;;;;;;;;;;;;;5020202;28;19965;-67
2021/05/05 13:09:09;;;;;;;;;;;;;;;;;;5024306;28;20397;-65
2021/05/05 13:11:37;;;;;;;;;;;;;;;;;;5019845;28;19926;-67
2021/05/05 13:14:06;;;;;;;;;;;;;;;;;;5020207;28;19934;-67
2021/05/05 13:16:39;;;;;;;;;;;;;;;;;;5024126;28;20405;-66
2021/05/05 13:19:23;;;;;;;;;;;;;;;;;;5025568;28;19931;-65
2021/05/05 13:30:20;;;;;;;;;;;;;;;;;;5019883;28;20307;-67
2021/05/05 13:32:46;;;;;;;;;;;;;;;;;;5025871;28;19935;-68
2021/05/05 13:35:13;;;;;;;;;;;;;;;;;;5018977;28;19960;-66
2021/05/05 13:37:39;;;;;;;;;;;;;;;;;;5024857;28;19980;-68
2021/05/05 13:40:06;;;;;;;;;;;;;;;;;;5022809;28;19926;-65
2021/05/05 13:42:33;;;;;;;;;;;;;;;;;;5019585;28;19973;-67
2021/05/05 13:45:05;;;;;;;;;;;;;;;;;;5020950;28;19963;-69
2021/05/05 13:47:33;;;;;;;;;;;;;;;;;;5023308;28;19925;-66
2021/05/05 13:50:00;;;;;;;;;;;;;;;;;;5026306;28;19931;-66
2021/05/05 13:52:26;;;;;;;;;;;;;;;;;;5018016;28;19925;-66
2021/05/05 13:54:54;;;;;;;;;;;;;;;;;;5016539;28;19925;-69
2021/05/05 13:57:20;;;;;;;;;;;;;;;;;;5022658;28;19979;-71
2021/05/05 13:59:48;;;;;;;;;;;;;;;;;;5026162;28;20075;-70
2021/05/05 14:02:15;;;;;;;;;;;;;;;;;;5025782;28;19983;-67
2021/05/05 14:04:41;;;;;;;;;;;;;;;;;;5027197;28;20665;-69
2021/05/05 14:07:10;;;;;;;;;;;;;;;;;;5024827;28;19933;-66
2021/05/05 14:09:36;;;;;;;;;;;;;;;;;;5025698;28;19933;-67
2021/05/05 14:12:06;;;;;;;;;;;;;;;;;;5031028;28;19925;-66
2021/05/05 14:14:36;;;;;;;;;;;;;;;;;;5024478;28;19976;-69
2021/05/05 14:17:03;;;;;;;;;;;;;;;;;;5025344;28;19925;-67
2021/05/05 14:19:29;;;;;;;;;;;;;;;;;;5024982;28;19971;-68
2021/05/05 14:21:56;;;;;;;;;;;;;;;;;;5024875;28;20027;-67
2021/05/05 14:24:26;;;;;;;;;;;;;;;;;;5025129;28;19933;-68
2021/05/05 14:26:52;;;;;;;;;;;;;;;;;;5016868;28;19945;-67
2021/05/05 14:29:20;;;;;;;;;;;;;;;;;;5024244;28;19965;-68
2021/05/05 14:31:46;;;;;;;;;;;;;;;;;;5029223;28;20432;-67
2021/05/05 14:34:13;;;;;;;;;;;;;;;;;;5023997;28;19959;-70
2021/05/05 14:36:40;;;;;;;;;;;;;;;;;;5029438;28;19925;-66
2021/05/05 14:39:10;;;;;;;;;;;;;;;;;;5021634;28;20356;-67
2021/05/05 14:41:37;;;;;;;;;;;;;;;;;;5024616;28;19925;-69
2021/05/05 14:44:09;;;;;;;;;;;;;;;;;;5023581;28;20269;-69
2021/05/05 14:49:22;;;;;;;;;;;;;;;;;;5026388;28;19958;-66
2021/05/05 14:51:48;;;;;;;;;;;;;;;;;;5027166;28;19939;-68
2021/05/05 14:54:15;;;;;;;;;;;;;;;;;;5020220;28;20047;-67
2021/05/05 14:56:41;;;;;;;;;;;;;;;;;;5022537;28;20003;-66
2021/05/05 14:59:10;;;;;;;;;;;;;;;;;;5024759;28;19982;-67
2021/05/05 15:01:37;;;;;;;;;;;;;;;;;;5019530;28;20010;-65
2021/05/05 15:04:03;;;;;;;;;;;;;;;;;;5020882;28;20498;-66
2021/05/05 15:06:33;;;;;;;;;;;;;;;;;;5025675;28;20036;-66
2021/05/05 15:09:12;;;;;;;;;;;;;;;;;;5024924;28;20500;-68
2021/05/05 15:14:29;;;;;;;;;;;;;;;;;;5028856;28;20375;-67
2021/05/05 15:17:07;;;;;;;;;;;;;;;;;;5040774;28;20016;-66
2021/05/05 15:28:11;;;;;;;;;;;;;;;;;;5014391;28;19921;-66
2021/05/05 15:36:09;;;;;;;;;;;;;;;;;;5017520;28;19928;-68
2021/05/05 15:38:37;;;;;;;;;;;;;;;;;;5021711;28;20019;-66
2021/05/05 15:41:07;;;;;;;;;;;;;;;;;;5022010;28;19925;-66
2021/05/05 15:46:20;;;;;;;;;;;;;;;;;;5012092;28;20309;-67
2021/05/05 15:48:47;;;;;;;;;;;;;;;;;;5030177;28;19933;-69
2021/05/05 15:51:13;;;;;;;;;;;;;;;;;;5023995;28;19936;-68
2021/05/05 15:53:42;;;;;;;;;;;;;;;;;;5032018;28;19933;-67
2021/05/05 15:56:11;;;;;;;;;;;;;;;;;;5028128;28;20956;-67
2021/05/05 15:58:40;;;;;;;;;;;;;;;;;;5037310;28;19936;-68
2021/05/05 16:01:11;;;;;;;;;;;;;;;;;;5034346;28;19979;-68
2021/05/05 16:12:05;;;;;;;;;;;;;;;;;;5034979;28;19970;-69
2021/05/05 16:14:40;;;;;;;;;;;;;;;;;;5037964;28;19925;-67
2021/05/05 16:17:07;;;;;;;;;;;;;;;;;;5032621;28;20150;-66
2021/05/05 16:19:45;;;;;;;;;;;;;;;;;;5040053;28;20671;-66
2021/05/05 16:22:15;;;;;;;;;;;;;;;;;;5037332;28;20392;-67
2021/05/05 16:28:14;;;;;;;;;;;;;;;;;;5024419;28;20335;-67
2021/05/05 16:31:23;;;;;;;;;;;;;;;;;;5031846;28;19925;-67
2021/05/05 16:47:31;;;;;;;;;;;;;;;;;;5032895;28;20603;-68
2021/05/05 16:55:35;;;;;;;;;;;;;;;;;;5014190;28;19930;-68
2021/05/05 16:58:12;;;;;;;;;;;;;;;;;;5039740;28;19979;-69
2021/05/05 17:00:57;;;;;;;;;;;;;;;;;;5035956;28;19928;-69
2021/05/05 17:09:24;;;;;;;;;;;;;;;;;;5034825;28;20407;-68
2021/05/05 17:11:51;;;;;;;;;;;;;;;;;;5034794;28;19925;-69
2021/05/05 17:14:18;;;;;;;;;;;;;;;;;;5034834;28;19932;-69
2021/05/05 17:16:44;;;;;;;;;;;;;;;;;;5035579;28;19924;-68
2021/05/05 17:19:19;;;;;;;;;;;;;;;;;;5035950;28;20385;-69
2021/05/05 17:21:48;;;;;;;;;;;;;;;;;;5040174;28;20612;-67
2021/05/05 17:24:19;;;;;;;;;;;;;;;;;;5037689;28;19929;-68
2021/05/05 17:26:49;;;;;;;;;;;;;;;;;;5034841;28;19925;-68
2021/05/05 17:29:34;;;;;;;;;;;;;;;;;;5040978;28;19925;-67
2021/05/05 17:43:11;;;;;;;;;;;;;;;;;;5032970;28;20344;-67
2021/05/05 17:45:40;;;;;;;;;;;;;;;;;;5038581;28;19925;-66
2021/05/05 18:10:10;;;;;;;;;;;;;;;;;;5033902;28;19967;-66
2021/05/05 18:15:26;;;;;;;;;;;;;;;;;;5033784;28;19973;-66
2021/05/05 18:17:57;;;;;;;;;;;;;;;;;;5026687;28;20408;-66
2021/05/05 18:20:28;;;;;;;;;;;;;;;;;;5029054;28;19933;-66
2021/05/05 18:23:01;;;;;;;;;;;;;;;;;;5026091;28;20040;-66
2021/05/05 18:26:00;;;;;;;;;;;;;;;;;;5032441;28;19932;-66
2021/05/05 18:31:08;;;;;;;;;;;;;;;;;;5029271;22;20226;-68
2021/05/05 18:33:35;;;;;;;;;;;;;;;;;;5072590;28;19928;-67
2021/05/05 18:36:02;;;;;;;;;;;;;;;;;;5071062;28;19951;-70
2021/05/05 18:38:28;;;;;;;;;;;;;;;;;;5073324;28;19931;-69
2021/05/05 18:43:46;;;;;;;;;;;;;;;;;;5065328;28;19971;-71